Time;durP1;ratioP1;P1;durP2;ratioP2;P2;SDS_P1;SDS_P2;PMS_P1;PMS_P2;Temp;Humidity;BMP_temperature;BMP_pressure;BME280_temperature;BME280_humidity;BME280_pressure;Samples;Min_cycle;Max_cycle;Signal;HPM_P1;HPM_P2
2022/04/18 00:01:15;;;;;;;17.00;8.93;;;8.60;63.80;;;;;;6210895;23;20341;-75
2022/04/18 00:03:41;;;;;;;14.68;8.63;;;8.50;64.80;;;;;;6210569;23;20119;-75
2022/04/18 00:06:06;;;;;;;12.90;9.02;;;8.50;65.50;;;;;;6212967;23;20028;-75
2022/04/18 00:08:32;;;;;;;17.42;9.50;;;8.50;66.60;;;;;;6211085;23;20096;-75
2022/04/18 00:10:58;;;;;;;13.13;8.52;;;8.40;67.90;;;;;;6211480;23;20029;-76
2022/04/18 00:13:24;;;;;;;16.30;9.20;;;8.40;69.50;;;;;;6236185;23;20024;-76
2022/04/18 00:16:00;;;;;;;14.80;9.60;;;8.40;70.20;;;;;;6211399;23;20035;-76
2022/04/18 00:18:26;;;;;;;17.08;9.20;;;8.30;71.90;;;;;;6212274;23;20089;-74
2022/04/18 00:20:51;;;;;;;15.98;9.32;;;8.30;72.60;;;;;;6210861;23;20035;-75
2022/04/18 00:23:17;;;;;;;15.80;10.23;;;8.30;73.50;;;;;;6211457;23;20027;-75
2022/04/18 00:25:44;;;;;;;19.65;9.85;;;8.30;75.00;;;;;;6210483;23;20027;-76
2022/04/18 00:28:10;;;;;;;14.70;8.82;;;8.20;76.40;;;;;;6210897;23;20539;-75
2022/04/18 00:30:36;;;;;;;14.95;8.52;;;8.20;77.90;;;;;;6185517;23;20037;-75
2022/04/18 00:33:02;;;;;;;16.63;9.43;;;8.10;79.50;;;;;;6186058;23;20035;-75
2022/04/18 00:35:29;;;;;;;15.63;9.60;;;8.10;81.50;;;;;;6210815;23;20024;-76
2022/04/18 00:37:54;;;;;;;20.80;10.32;;;8.00;83.30;;;;;;6213014;23;20017;-75
2022/04/18 00:40:20;;;;;;;17.33;9.25;;;8.00;84.80;;;;;;6186183;23;20125;-76
2022/04/18 00:42:50;;;;;;;17.10;9.00;;;8.00;87.10;;;;;;6210999;23;20046;-75
2022/04/18 00:45:16;;;;;;;16.38;10.35;;;7.90;89.30;;;;;;6237906;23;20123;-74
2022/04/18 00:47:42;;;;;;;18.42;9.98;;;7.90;90.20;;;;;;6215587;23;20090;-76
2022/04/18 00:50:09;;;;;;;16.88;9.93;;;7.90;90.60;;;;;;6213135;23;20028;-75
2022/04/18 00:52:37;;;;;;;18.08;10.00;;;7.80;91.10;;;;;;6214813;23;20020;-75
2022/04/18 00:55:03;;;;;;;16.05;9.30;;;7.80;91.50;;;;;;6188802;23;20017;-75
2022/04/18 00:57:30;;;;;;;17.98;9.15;;;7.80;91.80;;;;;;6212738;23;20028;-75
2022/04/18 00:59:55;;;;;;;18.58;9.73;;;7.80;92.20;;;;;;6187248;23;20028;-75
2022/04/18 01:02:21;;;;;;;18.35;9.98;;;7.80;92.60;;;;;;6212600;23;20150;-76
2022/04/18 01:04:59;;;;;;;13.90;9.32;;;7.80;92.70;;;;;;6212658;23;20131;-76
2022/04/18 01:07:25;;;;;;;15.43;9.75;;;7.70;92.90;;;;;;6186643;23;20021;-75
2022/04/18 01:09:51;;;;;;;18.17;9.68;;;7.70;92.90;;;;;;6212861;23;20016;-76
2022/04/18 01:12:17;;;;;;;16.90;9.18;;;7.70;93.00;;;;;;6214563;23;20038;-76
2022/04/18 01:14:47;;;;;;;16.38;9.77;;;7.70;93.20;;;;;;6212983;23;20028;-74
2022/04/18 01:17:13;;;;;;;16.77;8.98;;;7.60;93.50;;;;;;6212716;23;20100;-75
2022/04/18 01:19:42;;;;;;;15.40;9.48;;;7.60;93.50;;;;;;6212662;23;20100;-76
2022/04/18 01:22:09;;;;;;;16.80;9.98;;;7.60;93.70;;;;;;6186837;23;20086;-75
2022/04/18 01:30:36;;;;;;;19.40;10.80;;;7.50;93.90;;;;;;6191245;23;20028;-74
2022/04/18 01:33:03;;;;;;;17.73;9.98;;;7.50;94.00;;;;;;6126512;23;20446;-75
2022/04/18 01:35:29;;;;;;;16.20;9.50;;;7.40;94.20;;;;;;6151398;23;20026;-75
2022/04/18 01:37:55;;;;;;;16.33;10.05;;;7.40;94.30;;;;;;6101646;23;20061;-74
2022/04/18 01:40:21;;;;;;;18.48;10.65;;;7.40;94.50;;;;;;6126160;23;20025;-75
2022/04/18 01:42:50;;;;;;;17.30;9.57;;;7.40;94.60;;;;;;6127298;23;20022;-74
2022/04/18 01:45:16;;;;;;;18.27;10.38;;;7.30;94.80;;;;;;6126662;23;20037;-73
2022/04/18 01:47:41;;;;;;;18.35;10.30;;;7.30;94.80;;;;;;6151322;23;20087;-74
2022/04/18 01:50:08;;;;;;;16.08;9.27;;;7.30;95.00;;;;;;6151403;23;20068;-75
2022/04/18 01:52:34;;;;;;;20.08;9.77;;;7.20;95.10;;;;;;6125637;23;20025;-75
2022/04/18 01:55:00;;;;;;;18.27;9.73;;;7.20;95.40;;;;;;6125587;23;20061;-75
2022/04/18 01:57:26;;;;;;;18.63;10.18;;;7.20;95.20;;;;;;6101864;23;20022;-75
2022/04/18 01:59:53;;;;;;;20.88;10.32;;;7.20;95.20;;;;;;6125748;23;20086;-75
2022/04/18 02:02:21;;;;;;;19.45;11.20;;;7.20;95.20;;;;;;6126475;23;20022;-74
2022/04/18 02:04:49;;;;;;;18.15;10.32;;;7.10;95.20;;;;;;6195398;23;20024;-74
2022/04/18 02:07:15;;;;;;;17.48;9.70;;;7.10;95.50;;;;;;6211987;23;20348;-74
2022/04/18 02:09:41;;;;;;;18.13;10.77;;;7.10;95.40;;;;;;6212651;23;20106;-75
2022/04/18 02:12:08;;;;;;;18.02;10.80;;;7.10;95.50;;;;;;6187471;23;20024;-74
2022/04/18 02:14:34;;;;;;;17.35;9.82;;;7.00;95.60;;;;;;6214330;23;20091;-75
2022/04/18 02:17:00;;;;;;;18.00;10.18;;;6.90;95.80;;;;;;6212351;23;20024;-75
2022/04/18 02:19:26;;;;;;;20.33;10.65;;;7.00;96.00;;;;;;6187388;23;20115;-74
2022/04/18 02:21:51;;;;;;;17.08;10.55;;;7.00;96.10;;;;;;6214572;23;20060;-75
2022/04/18 02:24:17;;;;;;;16.90;9.55;;;7.00;96.10;;;;;;6186022;23;20027;-75
2022/04/18 02:26:43;;;;;;;21.42;11.07;;;7.00;96.00;;;;;;6212559;23;20028;-74
2022/04/18 02:29:11;;;;;;;18.30;10.32;;;7.00;96.20;;;;;;6211937;23;20028;-74
2022/04/18 02:34:24;;;;;;;20.45;10.52;;;7.00;96.10;;;;;;6237252;23;20039;-75
2022/04/18 02:36:50;;;;;;;18.55;10.52;;;7.00;96.30;;;;;;6211611;23;20029;-76
2022/04/18 02:39:16;;;;;;;23.13;11.05;;;6.90;96.80;;;;;;6237679;23;20387;-76
2022/04/18 02:41:43;;;;;;;16.98;10.18;;;6.90;96.90;;;;;;6213472;23;20062;-76
2022/04/18 02:44:12;;;;;;;19.92;11.77;;;6.90;96.90;;;;;;6213659;23;20059;-76
2022/04/18 02:46:38;;;;;;;20.73;10.70;;;6.90;97.10;;;;;;6211693;23;20024;-75
2022/04/18 02:49:05;;;;;;;18.25;11.43;;;6.90;97.00;;;;;;6211819;23;20063;-75
2022/04/18 02:51:31;;;;;;;19.33;10.82;;;6.80;97.40;;;;;;6137707;23;20031;-75
2022/04/18 02:53:59;;;;;;;17.90;10.45;;;6.80;97.50;;;;;;6213826;23;20046;-75
2022/04/18 02:56:26;;;;;;;19.33;10.13;;;6.80;97.80;;;;;;6187661;23;20031;-75
2022/04/18 02:58:51;;;;;;;18.95;10.48;;;6.70;98.30;;;;;;6186750;22;20095;-75
2022/04/18 03:01:19;;;;;;;19.08;11.13;;;6.70;98.80;;;;;;6192405;23;20055;-74
2022/04/18 03:03:45;;;;;;;20.50;10.73;;;6.60;99.40;;;;;;6192341;23;20021;-75
2022/04/18 03:06:11;;;;;;;19.55;11.45;;;6.60;99.30;;;;;;6213164;23;20083;-74
2022/04/18 03:08:37;;;;;;;17.38;10.25;;;6.50;99.60;;;;;;6212799;23;20353;-74
2022/04/18 03:11:03;;;;;;;20.00;10.38;;;6.50;99.50;;;;;;6213503;23;20159;-76
2022/04/18 03:13:29;;;;;;;18.48;10.85;;;6.50;99.70;;;;;;6211515;23;20566;-76
2022/04/18 03:15:55;;;;;;;19.60;11.05;;;6.40;99.60;;;;;;6211008;23;20027;-75
2022/04/18 03:18:21;;;;;;;18.05;10.00;;;6.40;99.80;;;;;;6186581;23;20020;-75
2022/04/18 03:20:48;;;;;;;21.25;11.25;;;6.40;99.90;;;;;;6162124;23;20322;-74
2022/04/18 03:23:18;;;;;;;15.65;10.75;;;6.40;99.90;;;;;;6214299;23;20048;-75
2022/04/18 03:25:50;;;;;;;20.05;10.52;;;6.30;99.90;;;;;;6236283;23;20403;-74
2022/04/18 03:28:18;;;;;;;19.00;10.63;;;6.30;99.90;;;;;;6213218;23;20028;-76
2022/04/18 03:30:47;;;;;;;20.33;11.68;;;6.30;99.90;;;;;;6188696;23;20027;-75
2022/04/18 03:33:16;;;;;;;20.10;11.90;;;6.20;99.90;;;;;;6212856;23;20056;-75
2022/04/18 03:39:50;;;;;;;17.45;11.13;;;6.20;99.90;;;;;;6187745;23;20103;-75
2022/04/18 03:41:17;;;;;;;16.10;10.07;;;6.00;99.90;;;;;;6169555;23;20473;-75
2022/04/18 03:43:43;;;;;;;19.00;10.50;;;6.00;99.90;;;;;;6236241;23;20066;-75
2022/04/18 03:46:09;;;;;;;21.95;11.50;;;5.90;99.90;;;;;;6211015;23;20111;-75
2022/04/18 03:48:35;;;;;;;18.45;11.00;;;5.90;99.90;;;;;;6211299;23;20493;-75
2022/04/18 03:51:01;;;;;;;19.48;10.63;;;5.90;99.90;;;;;;6211165;23;20113;-75
2022/04/18 03:53:26;;;;;;;20.90;12.27;;;5.80;99.90;;;;;;6236608;23;20036;-75
2022/04/18 03:55:52;;;;;;;25.30;12.68;;;5.80;99.90;;;;;;6186049;23;20032;-76
2022/04/18 03:58:21;;;;;;;18.30;10.93;;;5.80;99.90;;;;;;6211101;23;20356;-76
2022/04/18 04:00:47;;;;;;;20.17;10.90;;;5.80;99.90;;;;;;6212295;23;20024;-76
2022/04/18 04:03:26;;;;;;;18.15;10.52;;;5.80;99.90;;;;;;6211504;23;20017;-75
2022/04/18 04:05:53;;;;;;;20.13;10.65;;;5.70;99.90;;;;;;6212780;23;20111;-76
2022/04/18 04:08:24;;;;;;;17.58;10.63;;;5.70;99.90;;;;;;6186148;23;20025;-76
2022/04/18 04:10:50;;;;;;;19.92;10.80;;;5.70;99.90;;;;;;6211334;23;20024;-75
2022/04/18 04:13:16;;;;;;;21.45;12.57;;;5.70;99.90;;;;;;6210572;23;20025;-75
2022/04/18 04:15:42;;;;;;;19.42;11.18;;;5.70;99.90;;;;;;6185342;23;20035;-75
2022/04/18 04:18:08;;;;;;;23.38;11.13;;;5.70;99.90;;;;;;6161613;23;20468;-75
2022/04/18 04:20:35;;;;;;;19.20;11.23;;;5.60;99.90;;;;;;6212714;23;20035;-75
2022/04/18 04:23:04;;;;;;;20.77;10.50;;;5.60;99.90;;;;;;6212901;23;20108;-76
2022/04/18 04:25:34;;;;;;;16.45;10.25;;;5.60;99.90;;;;;;6212879;23;20024;-75
2022/04/18 04:27:59;;;;;;;20.17;11.05;;;5.60;99.90;;;;;;6187954;23;20103;-75
2022/04/18 04:30:27;;;;;;;19.00;10.98;;;5.60;99.90;;;;;;6187905;23;20464;-75
2022/04/18 04:32:53;;;;;;;18.20;11.38;;;5.60;99.90;;;;;;6213035;23;20519;-75
2022/04/18 04:35:18;;;;;;;20.75;10.65;;;5.50;99.90;;;;;;6188143;23;20056;-75
2022/04/18 04:37:45;;;;;;;16.77;10.02;;;5.50;99.90;;;;;;6213835;23;20118;-75
2022/04/18 04:40:15;;;;;;;21.48;10.05;;;5.50;99.90;;;;;;6216093;23;20392;-74
2022/04/18 04:42:45;;;;;;;18.98;11.43;;;5.50;99.90;;;;;;6190202;23;20025;-75
2022/04/18 04:45:11;;;;;;;16.40;10.88;;;5.50;99.90;;;;;;6212101;23;20060;-76
2022/04/18 04:47:37;;;;;;;17.42;10.40;;;5.50;99.90;;;;;;6214794;23;20354;-75
2022/04/18 04:50:03;;;;;;;17.40;10.02;;;5.50;99.90;;;;;;6162933;23;20464;-75
2022/04/18 04:52:33;;;;;;;18.85;10.55;;;5.50;99.90;;;;;;6212754;23;20514;-75
2022/04/18 04:55:02;;;;;;;17.63;11.23;;;5.50;99.90;;;;;;6213139;23;20024;-75
2022/04/18 04:57:29;;;;;;;18.27;10.40;;;5.60;99.90;;;;;;6188115;23;20035;-75
2022/04/18 04:59:56;;;;;;;22.95;11.30;;;5.60;99.90;;;;;;6212025;23;20106;-74
2022/04/18 05:02:21;;;;;;;20.20;11.20;;;5.60;99.90;;;;;;6187784;23;20029;-75
2022/04/18 05:04:56;;;;;;;20.25;11.02;;;5.60;99.90;;;;;;6213121;23;20051;-75
2022/04/18 05:07:26;;;;;;;18.98;9.65;;;5.70;99.90;;;;;;6212975;23;20024;-75
2022/04/18 05:09:55;;;;;;;20.60;10.95;;;5.80;99.90;;;;;;6213787;23;20100;-75
2022/04/18 05:12:21;;;;;;;18.60;10.95;;;5.80;99.90;;;;;;6187890;23;20402;-74
2022/04/18 05:14:50;;;;;;;18.80;11.20;;;5.90;99.90;;;;;;6187977;23;20024;-75
2022/04/18 05:17:18;;;;;;;15.35;9.52;;;6.00;99.90;;;;;;6187709;23;20021;-76
2022/04/18 05:19:45;;;;;;;17.42;11.75;;;6.10;99.90;;;;;;6188200;23;20073;-77
2022/04/18 05:22:11;;;;;;;17.05;10.45;;;6.20;99.90;;;;;;6187628;23;20020;-75
2022/04/18 05:24:37;;;;;;;18.70;9.93;;;6.30;99.90;;;;;;6213351;23;20029;-75
2022/04/18 05:27:03;;;;;;;16.42;9.35;;;6.30;99.90;;;;;;6240291;23;20055;-75
2022/04/18 05:29:29;;;;;;;15.65;9.35;;;6.50;99.90;;;;;;6215089;23;20094;-78
2022/04/18 05:31:55;;;;;;;18.85;9.88;;;6.60;99.90;;;;;;6216049;23;20440;-75
2022/04/18 05:34:22;;;;;;;19.65;10.45;;;6.70;99.90;;;;;;6213413;23;20079;-76
2022/04/18 05:36:47;;;;;;;17.23;9.48;;;6.80;99.90;;;;;;6212523;23;20052;-75
2022/04/18 05:39:13;;;;;;;20.92;10.20;;;6.90;99.90;;;;;;6212902;23;20034;-75
2022/04/18 05:41:39;;;;;;;17.40;9.77;;;7.00;99.90;;;;;;6213533;23;20129;-76
2022/04/18 05:44:05;;;;;;;14.80;8.52;;;7.10;99.90;;;;;;6213194;23;20017;-76
2022/04/18 05:46:32;;;;;;;18.05;9.65;;;7.20;99.90;;;;;;6212276;23;20107;-76
2022/04/18 05:48:59;;;;;;;17.45;9.48;;;7.30;99.80;;;;;;6212353;23;20055;-76
2022/04/18 05:51:36;;;;;;;18.17;9.63;;;7.30;99.70;;;;;;6186907;23;20086;-76
2022/04/18 05:54:03;;;;;;;19.58;10.13;;;7.50;99.50;;;;;;6186236;23;20468;-76
2022/04/18 05:56:29;;;;;;;20.95;10.27;;;7.60;99.40;;;;;;6237574;23;20431;-75
2022/04/18 05:58:56;;;;;;;16.00;9.18;;;7.70;99.20;;;;;;6213925;23;20052;-75
2022/04/18 06:01:22;;;;;;;15.93;9.23;;;7.80;99.20;;;;;;6211571;23;20020;-75
2022/04/18 06:03:48;;;;;;;15.00;10.18;;;7.90;99.20;;;;;;6212052;23;20026;-78
2022/04/18 06:06:15;;;;;;;17.13;8.88;;;8.00;99.10;;;;;;6186972;23;20035;-75
2022/04/18 06:08:45;;;;;;;15.50;9.52;;;8.10;98.90;;;;;;6214187;23;20095;-76
2022/04/18 06:11:13;;;;;;;16.88;10.00;;;8.10;98.60;;;;;;6187583;23;20032;-75
2022/04/18 06:13:38;;;;;;;17.30;9.20;;;8.20;98.40;;;;;;6212628;23;20021;-76
2022/04/18 06:16:05;;;;;;;13.52;9.07;;;8.30;98.30;;;;;;6214056;23;20398;-76
2022/04/18 06:18:32;;;;;;;19.58;9.73;;;8.40;97.90;;;;;;6212608;23;20017;-76
2022/04/18 06:20:57;;;;;;;15.18;9.60;;;8.60;97.30;;;;;;6212120;23;20087;-76
2022/04/18 06:23:23;;;;;;;16.20;9.52;;;8.60;97.10;;;;;;6212931;23;20549;-75
2022/04/18 06:25:49;;;;;;;15.07;9.90;;;8.80;97.00;;;;;;6212142;23;20421;-77
2022/04/18 06:28:15;;;;;;;18.13;9.93;;;8.90;96.90;;;;;;6211958;23;20024;-75
2022/04/18 06:30:42;;;;;;;14.73;9.10;;;9.00;96.70;;;;;;6216129;23;20025;-77
2022/04/18 06:33:11;;;;;;;16.70;10.50;;;9.10;96.40;;;;;;6215399;23;20076;-77
2022/04/18 06:35:38;;;;;;;16.48;9.50;;;9.30;95.90;;;;;;6216903;23;20043;-76
2022/04/18 06:38:10;;;;;;;17.27;9.88;;;9.40;96.20;;;;;;6213733;23;20016;-77
2022/04/18 06:40:36;;;;;;;15.73;9.57;;;9.50;95.80;;;;;;6213136;23;20059;-76
2022/04/18 06:43:05;;;;;;;14.18;9.43;;;9.60;95.80;;;;;;6237487;23;20445;-76
2022/04/18 06:45:33;;;;;;;18.02;10.13;;;9.70;95.80;;;;;;6213767;23;20301;-76
2022/04/18 06:47:59;;;;;;;17.88;9.00;;;9.80;95.80;;;;;;6212142;23;20020;-76
2022/04/18 06:50:25;;;;;;;15.77;9.05;;;10.00;95.80;;;;;;6212270;23;20029;-75
2022/04/18 06:52:51;;;;;;;14.38;8.95;;;10.00;95.10;;;;;;6186333;23;20028;-77
2022/04/18 06:55:17;;;;;;;14.90;9.65;;;10.20;95.00;;;;;;6187174;23;20078;-77
2022/04/18 06:57:43;;;;;;;16.67;9.35;;;10.30;94.50;;;;;;6187575;23;20024;-80
2022/04/18 07:00:13;;;;;;;16.02;9.90;;;10.30;94.30;;;;;;6214689;23;20024;-77
2022/04/18 07:02:50;;;;;;;16.33;8.77;;;10.50;94.20;;;;;;6213153;23;20021;-76
2022/04/18 07:05:19;;;;;;;15.82;9.05;;;10.60;93.50;;;;;;6187127;23;20031;-77
2022/04/18 07:07:45;;;;;;;14.02;8.65;;;10.60;93.50;;;;;;6211626;23;20020;-76
2022/04/18 07:10:33;;;;;;;19.40;8.52;;;10.80;93.30;;;;;;6211924;23;20056;-77
2022/04/18 07:13:03;;;;;;;14.93;8.60;;;10.90;93.50;;;;;;6127323;23;20025;-77
2022/04/18 07:15:29;;;;;;;15.20;8.43;;;11.20;93.10;;;;;;6128665;23;20064;-78
2022/04/18 07:17:55;;;;;;;15.85;8.57;;;11.30;93.00;;;;;;6155409;23;20021;-77
2022/04/18 07:20:22;;;;;;;15.95;8.75;;;11.30;92.40;;;;;;6132729;23;20389;-77
2022/04/18 07:22:50;;;;;;;14.88;9.52;;;11.40;92.20;;;;;;6129545;23;20028;-77
2022/04/18 07:25:20;;;;;;;13.77;8.43;;;11.60;92.40;;;;;;6131981;23;20025;-75
2022/04/18 07:27:49;;;;;;;13.98;8.52;;;11.80;92.10;;;;;;6129121;23;20037;-79
2022/04/18 07:30:18;;;;;;;15.10;8.00;;;11.80;91.60;;;;;;6101697;23;20104;-76
2022/04/18 07:32:44;;;;;;;13.00;8.60;;;11.90;91.90;;;;;;6126082;23;20029;-76
2022/04/18 07:35:11;;;;;;;14.70;8.90;;;12.10;91.40;;;;;;6150714;23;20473;-76
2022/04/18 07:38:48;;;;;;;15.00;8.70;;;12.30;91.20;;;;;;6125634;23;20051;-78
2022/04/18 07:40:25;;;;;;;13.95;7.80;;;12.40;90.50;;;;;;6125440;23;20025;-78
2022/04/18 07:42:52;;;;;;;13.55;8.18;;;12.50;89.80;;;;;;6103544;23;20070;-78
2022/04/18 07:45:18;;;;;;;14.30;8.40;;;12.60;88.10;;;;;;6212038;23;20210;-77
2022/04/18 07:47:44;;;;;;;11.73;8.30;;;12.70;89.60;;;;;;6211389;23;20048;-78
2022/04/18 07:50:10;;;;;;;11.82;8.65;;;12.80;90.10;;;;;;6164044;23;20031;-78
2022/04/18 07:52:51;;;;;;;13.38;8.20;;;12.90;86.80;;;;;;6187148;23;20021;-77
2022/04/18 07:55:23;;;;;;;13.30;8.32;;;13.00;86.30;;;;;;6212138;23;20024;-78
2022/04/18 07:57:50;;;;;;;11.52;7.53;;;13.20;83.80;;;;;;6187977;23;20024;-78
2022/04/18 08:00:18;;;;;;;12.60;7.65;;;13.20;83.00;;;;;;6212874;23;20028;-77
2022/04/18 08:02:44;;;;;;;13.82;8.35;;;13.40;84.20;;;;;;6213770;23;20028;-77
2022/04/18 08:05:10;;;;;;;12.82;8.27;;;13.60;85.60;;;;;;6213385;23;20021;-78
2022/04/18 08:07:36;;;;;;;12.57;7.65;;;13.70;85.20;;;;;;6213365;23;20511;-77
2022/04/18 08:10:06;;;;;;;14.75;8.35;;;13.80;84.10;;;;;;6213192;23;20047;-78
2022/04/18 08:12:33;;;;;;;14.00;7.57;;;13.90;85.50;;;;;;6213620;23;20103;-78
2022/04/18 08:14:59;;;;;;;12.60;7.95;;;14.10;83.60;;;;;;6188313;23;20028;-78
2022/04/18 08:17:25;;;;;;;12.00;7.28;;;14.20;81.10;;;;;;6213579;23;20062;-78
2022/04/18 08:19:52;;;;;;;12.05;7.60;;;14.20;76.00;;;;;;6213707;23;20025;-77
2022/04/18 08:22:18;;;;;;;13.43;6.88;;;14.40;76.00;;;;;;6233044;23;20089;-77
2022/04/18 08:24:48;;;;;;;11.40;7.00;;;14.60;75.00;;;;;;6188768;23;20025;-78
2022/04/18 08:27:15;;;;;;;12.63;7.60;;;14.70;74.20;;;;;;6213637;23;20021;-78
2022/04/18 08:29:41;;;;;;;12.10;7.70;;;14.80;72.90;;;;;;6189062;23;20039;-79
2022/04/18 08:32:07;;;;;;;11.75;7.63;;;14.90;69.60;;;;;;6213297;23;20553;-78
2022/04/18 08:34:33;;;;;;;10.40;7.22;;;14.90;67.80;;;;;;6212601;23;20024;-77
2022/04/18 08:36:59;;;;;;;9.70;6.95;;;15.10;70.30;;;;;;6213133;23;20020;-77
2022/04/18 08:39:27;;;;;;;11.95;7.80;;;15.30;71.60;;;;;;6213181;23;20105;-78
2022/04/18 08:42:05;;;;;;;12.80;7.50;;;15.50;67.00;;;;;;6213843;23;20020;-77
2022/04/18 08:44:36;;;;;;;13.40;7.93;;;15.60;64.70;;;;;;6213224;23;20399;-79
2022/04/18 08:47:03;;;;;;;12.07;7.82;;;15.70;64.30;;;;;;6212705;23;20099;-79
2022/04/18 08:55:01;;;;;;;;;;;16.10;62.60;;;;;;6214030;23;20020;-79
2022/04/18 08:57:26;;;;;;;11.77;6.85;;;16.20;60.40;;;;;;6215948;23;19927;-77
2022/04/18 08:59:53;;;;;;;11.80;7.93;;;16.20;62.40;;;;;;6213522;23;20016;-78
2022/04/18 09:02:18;;;;;;;10.75;7.63;;;16.40;62.00;;;;;;6214177;23;20032;-77
2022/04/18 09:04:45;;;;;;;12.68;7.65;;;16.60;60.00;;;;;;6213899;23;20304;-78
2022/04/18 09:07:12;;;;;;;11.85;8.02;;;16.80;60.20;;;;;;6214040;23;20020;-79
2022/04/18 09:09:38;;;;;;;13.95;7.72;;;17.00;59.60;;;;;;6216959;23;20052;-78
2022/04/18 09:12:29;;;;;;;10.65;7.10;;;17.00;57.80;;;;;;6215366;23;20040;-79
2022/04/18 09:14:57;;;;;;;14.07;7.88;;;17.00;54.20;;;;;;6209263;23;20051;-77
2022/04/18 09:17:50;;;;;;;11.82;7.70;;;17.20;57.50;;;;;;6211473;23;20111;-79
2022/04/18 09:20:18;;;;;;;12.43;7.15;;;17.40;56.20;;;;;;6211276;23;20499;-79
2022/04/18 09:22:49;;;;;;;11.75;7.05;;;17.50;55.10;;;;;;6214558;23;20028;-78
2022/04/18 09:25:19;;;;;;;11.57;7.13;;;17.50;53.40;;;;;;6212912;23;20468;-79
2022/04/18 09:27:58;;;;;;;10.48;7.22;;;17.80;53.50;;;;;;6237894;23;20021;-78
2022/04/18 09:30:37;;;;;;;10.35;6.55;;;17.90;52.20;;;;;;6236943;23;20111;-78
2022/04/18 09:33:07;;;;;;;12.55;7.45;;;18.00;52.10;;;;;;6212532;23;20545;-79
2022/04/18 09:35:41;;;;;;;13.95;7.57;;;18.10;52.00;;;;;;6213127;23;20032;-79
2022/04/18 09:38:11;;;;;;;11.85;7.03;;;18.30;52.10;;;;;;6186621;23;20083;-78
2022/04/18 09:40:37;;;;;;;14.73;8.20;;;18.50;51.20;;;;;;6187584;23;20033;-78
2022/04/18 09:43:24;;;;;;;12.00;7.07;;;18.60;51.30;;;;;;6234278;23;20526;-77
2022/04/18 09:45:54;;;;;;;16.55;6.97;;;18.70;50.10;;;;;;6237133;23;20024;-79
2022/04/18 09:48:21;;;;;;;12.70;7.22;;;18.80;48.60;;;;;;6162575;23;20020;-78
2022/04/18 09:51:01;;;;;;;10.10;6.22;;;18.90;48.20;;;;;;6187427;23;20108;-79
2022/04/18 09:53:27;;;;;;;11.80;6.32;;;19.10;47.80;;;;;;6189117;23;20102;-79
2022/04/18 09:55:55;;;;;;;8.50;5.78;;;19.20;47.30;;;;;;6211487;23;20460;-79
2022/04/18 09:58:21;;;;;;;11.18;6.13;;;19.40;46.60;;;;;;6188098;23;20066;-79
2022/04/18 10:00:51;;;;;;;9.55;6.03;;;19.50;45.00;;;;;;6214551;23;20059;-79
2022/04/18 10:03:22;;;;;;;11.05;6.05;;;19.50;44.40;;;;;;6212188;23;20017;-79
2022/04/18 10:05:49;;;;;;;10.15;6.28;;;19.70;45.60;;;;;;6186234;23;20078;-77
2022/04/18 10:08:21;;;;;;;10.85;6.32;;;20.00;46.10;;;;;;6213239;23;20341;-79
2022/04/18 10:10:48;;;;;;;8.32;6.07;;;20.00;43.60;;;;;;6187721;23;20513;-79
2022/04/18 10:13:16;;;;;;;12.40;6.10;;;20.10;44.00;;;;;;6188677;23;20064;-78
2022/04/18 10:15:45;;;;;;;8.52;5.68;;;20.20;42.70;;;;;;6214406;23;20025;-78
2022/04/18 10:18:11;;;;;;;11.25;6.78;;;20.20;43.80;;;;;;6186957;23;20071;-77
2022/04/18 10:20:43;;;;;;;10.40;6.43;;;20.50;43.60;;;;;;6212317;23;20021;-78
2022/04/18 10:23:39;;;;;;;9.88;6.95;;;20.60;42.90;;;;;;6214656;23;20063;-79
2022/04/18 10:26:37;;;;;;;8.60;5.45;;;20.80;42.90;;;;;;6187084;23;20099;-78
2022/04/18 10:29:10;;;;;;;7.97;5.57;;;20.80;39.40;;;;;;6212499;23;20031;-78
2022/04/18 10:31:40;;;;;;;16.73;6.13;;;20.50;40.50;;;;;;6187603;23;20033;-78
2022/04/18 10:34:35;;;;;;;8.68;4.93;;;20.70;42.50;;;;;;6236136;23;20016;-78
2022/04/18 10:37:04;;;;;;;6.93;4.60;;;20.60;41.50;;;;;;6155983;23;20039;-78
2022/04/18 10:39:38;;;;;;;6.53;4.68;;;20.70;40.00;;;;;;6156340;23;20404;-79
2022/04/18 10:42:22;;;;;;;8.48;4.40;;;20.80;40.40;;;;;;6153195;23;20024;-79
2022/04/18 10:45:14;;;;;;;9.07;4.80;;;20.80;39.70;;;;;;6157113;23;20104;-78
2022/04/18 10:48:07;;;;;;;11.70;5.28;;;21.10;41.10;;;;;;6181421;23;20087;-77
2022/04/18 10:50:32;;;;;;;7.43;4.35;;;21.30;39.50;;;;;;6181769;23;20025;-77
2022/04/18 10:53:37;;;;;;;10.55;5.05;;;21.40;40.60;;;;;;6155258;23;20530;-77
2022/04/18 10:56:03;;;;;;;6.78;3.63;;;21.40;37.50;;;;;;6130901;23;20419;-78
2022/04/18 10:58:32;;;;;;;8.98;5.40;;;21.70;37.80;;;;;;6156607;23;20099;-78
2022/04/18 11:01:00;;;;;;;8.02;4.40;;;21.70;37.30;;;;;;6156360;23;20084;-79
2022/04/18 11:03:35;;;;;;;6.78;4.03;;;21.80;37.50;;;;;;6181698;23;20029;-80
2022/04/18 11:06:07;;;;;;;8.00;4.78;;;21.80;37.90;;;;;;6133161;23;20033;-78
2022/04/18 11:08:36;;;;;;;7.82;4.82;;;21.70;37.10;;;;;;6195832;23;20024;-78
2022/04/18 11:11:06;;;;;;;7.32;4.82;;;22.00;37.80;;;;;;6214332;23;20024;-80
2022/04/18 11:13:33;;;;;;;5.35;3.63;;;22.40;36.20;;;;;;6214660;23;20024;-79
2022/04/18 11:16:24;;;;;;;15.65;4.88;;;22.50;35.90;;;;;;6190507;23;20035;-78
2022/04/18 11:19:06;;;;;;;5.28;3.00;;;23.10;36.80;;;;;;6217327;23;20102;-79
2022/04/18 11:21:55;;;;;;;6.07;4.15;;;23.20;35.10;;;;;;6213451;23;20020;-80
2022/04/18 11:24:42;;;;;;;6.30;3.72;;;23.20;32.50;;;;;;6187967;23;20103;-81
2022/04/18 11:27:13;;;;;;;5.70;3.85;;;23.70;32.40;;;;;;6188268;23;20448;-79
2022/04/18 11:29:56;;;;;;;6.20;2.95;;;23.90;33.70;;;;;;6215833;23;20052;-79
2022/04/18 11:32:31;;;;;;;4.97;3.40;;;24.30;33.50;;;;;;6214607;23;20059;-80
2022/04/18 11:34:59;;;;;;;6.50;4.55;;;24.50;32.90;;;;;;6189183;23;20420;-80
2022/04/18 11:37:27;;;;;;;7.60;3.58;;;24.50;31.60;;;;;;6214303;23;20348;-80
2022/04/18 11:39:59;;;;;;;6.93;4.07;;;24.50;32.10;;;;;;6191459;23;20066;-80
2022/04/18 11:42:29;;;;;;;7.13;4.35;;;24.80;31.30;;;;;;6214113;23;20020;-78
2022/04/18 11:45:08;;;;;;;6.38;3.80;;;24.70;30.80;;;;;;6190355;23;20029;-80
2022/04/18 11:47:36;;;;;;;7.55;3.85;;;25.00;30.80;;;;;;6215880;23;20476;-79
2022/04/18 11:50:04;;;;;;;6.97;3.67;;;25.10;30.60;;;;;;6213765;23;20028;-80
2022/04/18 11:52:41;;;;;;;5.28;2.92;;;25.00;30.50;;;;;;6213652;23;20071;-80
2022/04/18 11:55:17;;;;;;;5.68;2.88;;;24.80;30.70;;;;;;6189525;23;20028;-77
2022/04/18 11:57:46;;;;;;;5.95;2.83;;;25.20;31.80;;;;;;6216197;23;20027;-79
2022/04/18 12:09:30;;;;;;;6.70;4.25;;;24.50;30.80;;;;;;6215636;23;20092;-80
2022/04/18 12:12:07;;;;;;;5.75;3.38;;;25.00;29.60;;;;;;6213270;23;20349;-81
2022/04/18 12:14:33;;;;;;;6.93;3.70;;;25.30;29.70;;;;;;6192328;23;20028;-79
2022/04/18 12:17:07;;;;;;;5.95;3.38;;;25.60;29.50;;;;;;6218745;23;20024;-80
2022/04/18 12:19:33;;;;;;;5.43;3.00;;;26.20;28.50;;;;;;6218718;23;20104;-79
2022/04/18 12:22:00;;;;;;;7.93;3.28;;;26.60;28.40;;;;;;6222925;23;20020;-80
2022/04/18 12:24:26;;;;;;;7.22;3.55;;;26.40;28.30;;;;;;6220467;23;20031;-79
2022/04/18 12:26:56;;;;;;;5.43;3.20;;;26.20;28.50;;;;;;6215748;23;20052;-79
2022/04/18 12:33:15;;;;;;;7.70;3.75;;;25.60;30.30;;;;;;6220389;23;20134;-78
2022/04/18 12:35:48;;;;;;;6.13;3.63;;;25.30;28.80;;;;;;6221233;23;20025;-78
2022/04/18 12:38:20;;;;;;;6.13;3.65;;;25.90;29.10;;;;;;6228732;23;20024;-78
2022/04/18 12:40:58;;;;;;;5.28;2.95;;;25.50;29.30;;;;;;6229412;23;20087;-77
2022/04/18 12:43:34;;;;;;;8.00;3.13;;;26.20;31.60;;;;;;6200638;23;20024;-78
2022/04/18 12:46:10;;;;;;;6.82;2.97;;;27.30;29.20;;;;;;6216227;23;20024;-77
2022/04/18 12:48:39;;;;;;;7.28;3.78;;;28.00;29.40;;;;;;6216054;23;20466;-78
2022/04/18 12:51:07;;;;;;;6.30;3.17;;;28.60;27.60;;;;;;6212618;23;20025;-77
2022/04/18 12:53:55;;;;;;;7.10;3.63;;;28.50;27.50;;;;;;6186209;23;20395;-78
2022/04/18 12:56:26;;;;;;;5.45;3.30;;;28.50;27.10;;;;;;6212768;23;20056;-78
2022/04/18 12:58:56;;;;;;;5.72;3.13;;;28.60;27.90;;;;;;6187941;23;20021;-77
2022/04/18 13:01:32;;;;;;;4.80;3.20;;;29.10;27.10;;;;;;6212680;23;20036;-79
2022/04/18 13:03:59;;;;;;;7.32;3.38;;;29.10;26.60;;;;;;6212676;23;20025;-78
2022/04/18 13:06:27;;;;;;;5.05;2.90;;;29.10;27.00;;;;;;6213816;23;20071;-79
2022/04/18 13:09:02;;;;;;;5.68;3.20;;;29.20;26.90;;;;;;6213034;23;20798;-79
2022/04/18 13:11:49;;;;;;;7.07;3.78;;;28.80;27.00;;;;;;6211407;23;20068;-78
2022/04/18 13:14:18;;;;;;;6.32;3.65;;;28.50;27.50;;;;;;6214706;23;20024;-79
2022/04/18 13:16:45;;;;;;;6.50;2.75;;;28.50;26.80;;;;;;6212413;23;20074;-77
2022/04/18 13:19:13;;;;;;;6.45;3.58;;;28.80;26.60;;;;;;6212686;23;20024;-78
2022/04/18 13:21:41;;;;;;;6.82;3.25;;;29.10;27.30;;;;;;6214581;23;20020;-78